Kaan Kalkavan — TCTX2 — position and weather

sailwx.info

Track history (hours):
 
Tides and Currents Weather Stations Pressure Air Temp Water Temp Dewpoint Dewpoint Depression Visibility Wind Speed Wind Dir Waves Ship Positions

Kaan Kalkavan

Last reported at 2018-Feb-24 23:56 UTC. Time now 2018-Feb-25 01:48 UTC.
Position N 40°25' E 028°59'.

Length 183 m; draft 9.6 m.

Type: Ship. MMSI: 271043028.

Date/timePositionNaut miles runAvg speedWind from/ knotsBaromVisibWave heightAir tempDewpointWater temp
2018-Feb-24 23:56N 40°25' E 028°59'410.1
2018-Feb-24 23:31N 40°25' E 029°05'0 0.0
2018-Feb-24 11:48N 40°25' E 029°05'  
2018-Feb-22 02:53N 31°52' E 034°38'0 0.0
2018-Feb-20 12:34N 31°51' E 034°38'1 4.9
2018-Feb-20 12:26N 31°52' E 034°37'1 3.3
2018-Feb-20 12:01N 31°50' E 034°36'0 0.2
2018-Feb-20 11:31N 31°50' E 034°36'0 0.0
2018-Feb-20 11:01N 31°50' E 034°36'0 0.0
2018-Feb-20 10:28N 31°50' E 034°36'0 0.0
2018-Feb-20 10:01N 31°50' E 034°36'0 0.0
2018-Feb-20 09:31N 31°50' E 034°36'0 0.0
2018-Feb-20 07:58N 31°50' E 034°36'0 0.0
2018-Feb-20 07:10N 31°50' E 034°36'0 0.0
2018-Feb-20 05:10N 31°50' E 034°36'0 0.1
2018-Feb-20 04:52N 31°50' E 034°36'15 5.3
2018-Feb-20 01:59N 32°05' E 034°33'816.1
2018-Feb-20 01:30N 32°13' E 034°35'816.0
2018-Feb-20 01:00N 32°20' E 034°38'816.1
2018-Feb-20 00:30N 32°28' E 034°41'816.3
2018-Feb-20 00:00N 32°36' E 034°43'816.1
2018-Feb-19 23:30N 32°43' E 034°46'815.7
2018-Feb-19 23:00N 32°51' E 034°51'714.1
2018-Feb-19 22:30N 32°52' E 034°59'3 0.1
2018-Feb-19 01:40N 32°50' E 035°01'2 6.7
2018-Feb-19 01:25N 32°51' E 034°60'4 8.9
2018-Feb-19 01:00N 32°53' E 034°56'917.7
2018-Feb-19 00:31N 32°55' E 034°45'918.1
2018-Feb-19 00:00N 32°57' E 034°35'274 5.7
2018-Feb-17 00:18N 36°03' E 030°32'517.2
2018-Feb-17 00:00N 36°03' E 030°25'  
Track history (hours):
 
Tides and Currents Weather Stations Pressure Air Temp Water Temp Dewpoint Dewpoint Depression Visibility Wind Speed Wind Dir Waves Ship Positions

Kaan Kalkavan

Last reported at 2018-Feb-24 23:56 UTC. Time now 2018-Feb-25 01:48 UTC.
Position N 40°25' E 028°59'.

Length 183 m; draft 9.6 m.

Type: Ship. MMSI: 271043028.

Date/timePositionNaut miles runAvg speedWind from/ knotsBaromVisibWave heightAir tempDewpointWater temp
2018-Feb-24 23:56N 40°25' E 028°59'410.1
2018-Feb-24 23:31N 40°25' E 029°05'0 0.0
2018-Feb-24 11:48N 40°25' E 029°05'  
2018-Feb-22 02:53N 31°52' E 034°38'0 0.0
2018-Feb-20 12:34N 31°51' E 034°38'1 4.9
2018-Feb-20 12:26N 31°52' E 034°37'1 3.3
2018-Feb-20 12:01N 31°50' E 034°36'0 0.2
2018-Feb-20 11:31N 31°50' E 034°36'0 0.0
2018-Feb-20 11:01N 31°50' E 034°36'0 0.0
2018-Feb-20 10:28N 31°50' E 034°36'0 0.0
2018-Feb-20 10:01N 31°50' E 034°36'0 0.0
2018-Feb-20 09:31N 31°50' E 034°36'0 0.0
2018-Feb-20 07:58N 31°50' E 034°36'0 0.0
2018-Feb-20 07:10N 31°50' E 034°36'0 0.0
2018-Feb-20 05:10N 31°50' E 034°36'0 0.1
2018-Feb-20 04:52N 31°50' E 034°36'15 5.3
2018-Feb-20 01:59N 32°05' E 034°33'816.1
2018-Feb-20 01:30N 32°13' E 034°35'816.0
2018-Feb-20 01:00N 32°20' E 034°38'816.1
2018-Feb-20 00:30N 32°28' E 034°41'816.3
2018-Feb-20 00:00N 32°36' E 034°43'816.1
2018-Feb-19 23:30N 32°43' E 034°46'815.7
2018-Feb-19 23:00N 32°51' E 034°51'714.1
2018-Feb-19 22:30N 32°52' E 034°59'3 0.1
2018-Feb-19 01:40N 32°50' E 035°01'2 6.7
2018-Feb-19 01:25N 32°51' E 034°60'4 8.9
2018-Feb-19 01:00N 32°53' E 034°56'917.7
2018-Feb-19 00:31N 32°55' E 034°45'918.1
2018-Feb-19 00:00N 32°57' E 034°35'274 5.7
2018-Feb-17 00:18N 36°03' E 030°32'517.2
2018-Feb-17 00:00N 36°03' E 030°25'  

Dump ship's entire track history